createdAt,value
2019-01-05T00:00:11.645Z,16.53
2019-01-05T00:02:55.355Z,16.00
2019-01-05T00:05:43.657Z,18.10
2019-01-05T00:08:34.680Z,15.00
2019-01-05T00:11:21.443Z,18.00
2019-01-05T00:14:27.629Z,16.00
2019-01-05T00:17:22.359Z,15.50
2019-01-05T00:20:18.568Z,13.80
2019-01-05T00:23:11.768Z,16.10
2019-01-05T00:26:08.217Z,15.97
2019-01-05T00:28:55.463Z,14.27
2019-01-05T00:31:56.023Z,17.50
2019-01-05T00:34:53.520Z,17.53
2019-01-05T00:37:41.752Z,16.23
2019-01-05T00:40:33.801Z,18.77
2019-01-05T00:43:31.851Z,18.53
2019-01-05T00:46:39.318Z,14.83
2019-01-05T00:49:31.764Z,15.97
2019-01-05T00:52:35.992Z,17.53
2019-01-05T00:55:29.076Z,18.03
2019-01-05T00:58:24.728Z,14.27
2019-01-05T01:01:11.051Z,15.17
2019-01-05T01:04:05.209Z,18.23
2019-01-05T01:07:02.507Z,17.63
2019-01-05T01:10:08.944Z,16.00
2019-01-05T01:12:55.709Z,16.93
2019-01-05T01:15:42.867Z,19.00
2019-01-05T01:18:29.514Z,14.80
2019-01-05T01:21:11.373Z,17.67
2019-01-05T01:24:18.650Z,16.90
2019-01-05T01:27:09.903Z,19.37
2019-01-05T01:30:13.509Z,19.20
2019-01-05T01:33:19.977Z,16.47
2019-01-05T01:36:10.988Z,20.97
2019-01-05T01:39:08.730Z,19.23
2019-01-05T01:42:16.948Z,19.87
2019-01-05T01:45:11.583Z,17.77
2019-01-05T01:48:00.373Z,21.00
2019-01-05T01:50:51.883Z,22.23
2019-01-05T01:53:41.194Z,22.67
2019-01-05T01:56:28.549Z,19.80
2019-01-05T01:59:18.161Z,19.00
2019-01-05T02:02:06.096Z,19.37
2019-01-05T02:04:53.140Z,17.73
2019-01-05T02:07:41.572Z,19.27
2019-01-05T02:10:28.903Z,20.10
2019-01-05T02:13:21.666Z,21.47
2019-01-05T02:16:16.907Z,23.00
2019-01-05T02:19:47.676Z,22.37
2019-01-05T02:23:13.023Z,21.63
2019-01-05T02:26:39.221Z,19.50
2019-01-05T02:30:16.472Z,18.13
2019-01-05T02:33:51.355Z,19.27
2019-01-05T02:37:17.367Z,22.27
2019-01-05T02:40:35.981Z,25.13
2019-01-05T02:44:19.145Z,18.60
2019-01-05T02:48:00.453Z,25.50
2019-01-05T02:51:49.049Z,21.47
2019-01-05T02:55:16.222Z,24.97
2019-01-05T02:58:47.265Z,24.37
2019-01-05T03:02:25.735Z,24.10
2019-01-05T03:06:02.512Z,22.77
2019-01-05T03:09:29.013Z,28.00
2019-01-05T03:12:57.320Z,21.23
2019-01-05T03:16:29.231Z,26.23
2019-01-05T03:20:07.212Z,28.43
2019-01-05T03:23:16.684Z,28.33
2019-01-05T03:26:45.718Z,30.13
2019-01-05T03:30:18.663Z,25.20
2019-01-05T03:33:29.517Z,29.17
2019-01-05T03:36:45.241Z,28.73
2019-01-05T03:40:14.458Z,28.57
2019-01-05T03:43:51.275Z,27.13
2019-01-05T03:47:05.618Z,29.80
2019-01-05T03:50:25.411Z,29.43
2019-01-05T03:54:21.125Z,29.13
2019-01-05T03:57:37.620Z,23.80
2019-01-05T04:01:27.200Z,28.37
2019-01-05T04:04:54.569Z,32.00
2019-01-05T04:08:47.465Z,29.97
2019-01-05T04:12:26.227Z,25.33
2019-01-05T04:16:09.894Z,29.67
2019-01-05T04:19:37.967Z,27.30
2019-01-05T04:23:00.036Z,29.93
2019-01-05T04:26:18.423Z,28.40
2019-01-05T04:29:48.104Z,27.77
2019-01-05T04:33:06.029Z,27.10
2019-01-05T04:36:41.074Z,23.40
2019-01-05T04:40:24.048Z,27.80
2019-01-05T04:43:53.751Z,31.63
2019-01-05T04:47:31.970Z,25.27
2019-01-05T04:50:55.360Z,24.57
2019-01-05T04:54:17.640Z,27.13
2019-01-05T04:57:45.376Z,24.40
2019-01-05T05:01:17.959Z,22.93
2019-01-05T05:04:43.580Z,24.57
2019-01-05T05:08:15.747Z,23.70
2019-01-05T05:11:30.076Z,27.07
2019-01-05T05:15:15.522Z,20.77
2019-01-05T05:18:38.678Z,22.17
2019-01-05T05:22:11.218Z,23.63
2019-01-05T05:26:07.033Z,26.80
2019-01-05T05:29:42.574Z,22.97
2019-01-05T05:33:40.519Z,24.20
2019-01-05T05:37:01.953Z,21.93
2019-01-05T05:40:31.597Z,21.10
2019-01-05T05:44:04.905Z,22.70
2019-01-05T05:47:44.171Z,23.83
2019-01-05T05:51:37.059Z,21.73
2019-01-05T05:55:07.365Z,20.40
2019-01-05T05:58:29.164Z,22.27
2019-01-05T06:02:10.930Z,21.73
2019-01-05T06:05:51.201Z,18.00
2019-01-05T06:09:17.548Z,20.10
2019-01-05T06:12:41.296Z,16.30
2019-01-05T06:16:12.238Z,18.90
2019-01-05T06:19:36.974Z,17.50
2019-01-05T06:23:00.588Z,16.47
2019-01-05T06:26:19.454Z,16.00
2019-01-05T06:29:36.890Z,18.30
2019-01-05T06:32:59.331Z,18.23
2019-01-05T06:36:38.412Z,15.60
2019-01-05T06:40:16.736Z,14.60
2019-01-05T06:43:43.717Z,13.73
2019-01-05T06:47:29.329Z,12.03
2019-01-05T06:50:57.411Z,12.30
2019-01-05T06:54:30.983Z,12.27
2019-01-05T06:58:02.379Z,11.57
2019-01-05T07:01:54.667Z,11.50
2019-01-05T07:05:18.650Z,9.80
2019-01-05T07:08:50.552Z,12.67
2019-01-05T07:12:30.329Z,11.37
2019-01-05T07:16:13.007Z,8.10
2019-01-05T07:19:35.490Z,11.07
2019-01-05T07:23:40.702Z,8.80
2019-01-05T07:27:04.842Z,8.97
2019-01-05T07:30:37.863Z,7.60
2019-01-05T07:33:59.169Z,10.50
2019-01-05T07:37:34.957Z,9.13
2019-01-05T07:40:59.643Z,8.10
2019-01-05T07:44:38.477Z,8.43
2019-01-05T07:48:31.769Z,5.40
2019-01-05T07:51:54.353Z,8.00
2019-01-05T07:55:20.477Z,6.37
2019-01-05T07:58:57.480Z,6.73
2019-01-05T08:02:16.792Z,7.00
2019-01-05T08:05:30.975Z,6.57
2019-01-05T08:09:17.941Z,5.13
2019-01-05T08:13:02.799Z,6.33
2019-01-05T08:16:32.275Z,4.90
2019-01-05T08:20:01.732Z,4.53
2019-01-05T08:23:51.792Z,5.23
2019-01-05T08:28:02.366Z,4.53
2019-01-05T08:31:45.176Z,4.27
2019-01-05T08:35:32.352Z,6.23
2019-01-05T08:39:10.866Z,3.53
2019-01-05T08:43:09.570Z,4.30
2019-01-05T08:46:31.777Z,4.67
2019-01-05T08:49:52.524Z,5.17
2019-01-05T08:53:26.009Z,5.43
2019-01-05T08:57:01.696Z,3.57
2019-01-05T09:00:53.701Z,4.17
2019-01-05T09:04:37.629Z,4.43
2019-01-05T09:08:03.945Z,4.27
2019-01-05T09:11:38.439Z,5.07
2019-01-05T09:15:21.138Z,3.30
2019-01-05T09:18:37.534Z,2.80
2019-01-05T09:22:24.228Z,2.50
2019-01-05T09:26:01.181Z,2.80
2019-01-05T09:29:21.864Z,2.60
2019-01-05T09:33:20.903Z,6.83
2019-01-05T09:36:45.848Z,4.83
2019-01-05T09:40:15.521Z,2.17
2019-01-05T09:43:43.495Z,4.67
2019-01-05T09:47:19.632Z,4.57
2019-01-05T09:50:56.175Z,2.73
2019-01-05T09:54:55.399Z,2.60
2019-01-05T09:58:48.089Z,4.63
2019-01-05T10:02:13.051Z,2.20
2019-01-05T10:05:48.872Z,2.00
2019-01-05T10:09:13.521Z,2.57
2019-01-05T10:12:43.285Z,2.10
2019-01-05T10:16:03.189Z,2.23
2019-01-05T10:20:01.325Z,3.33
2019-01-05T10:23:44.975Z,2.03
2019-01-05T10:27:18.940Z,2.30
2019-01-05T10:31:00.054Z,2.30
2019-01-05T10:34:33.642Z,2.80
2019-01-05T10:38:23.298Z,2.43
2019-01-05T10:41:35.817Z,1.90
2019-01-05T10:44:47.214Z,3.73
2019-01-05T10:48:11.680Z,3.43
2019-01-05T10:51:27.362Z,1.93
2019-01-05T10:54:55.824Z,2.67
2019-01-05T10:58:25.327Z,2.30
2019-01-05T11:01:52.101Z,2.20
2019-01-05T11:05:24.891Z,2.87
2019-01-05T11:08:52.325Z,2.30
2019-01-05T11:12:17.205Z,1.87
2019-01-05T11:15:50.705Z,2.03
2019-01-05T11:19:01.412Z,2.10
2019-01-05T11:22:24.692Z,2.23
2019-01-05T11:25:35.259Z,2.20
2019-01-05T11:28:58.857Z,2.20
2019-01-05T11:32:27.900Z,3.07
2019-01-05T11:35:54.207Z,1.47
2019-01-05T11:39:30.782Z,1.80
2019-01-05T11:42:43.577Z,1.93
2019-01-05T11:46:16.902Z,2.80
2019-01-05T11:49:38.509Z,2.30
2019-01-05T11:53:13.405Z,1.27
2019-01-05T11:57:12.736Z,2.50
2019-01-05T12:00:42.132Z,2.23
2019-01-05T12:04:16.583Z,2.40
2019-01-05T12:08:15.551Z,3.50
2019-01-05T12:11:41.615Z,2.37
2019-01-05T12:15:08.054Z,1.70
2019-01-05T12:18:56.794Z,2.30
2019-01-05T12:22:24.640Z,3.13
2019-01-05T12:25:56.128Z,1.90
2019-01-05T12:29:33.499Z,3.90
2019-01-05T12:32:59.718Z,2.50
2019-01-05T12:36:26.408Z,2.30
2019-01-05T12:40:18.784Z,3.37
2019-01-05T12:43:37.663Z,2.73
2019-01-05T12:47:00.188Z,5.10
2019-01-05T12:50:27.800Z,4.87
2019-01-05T12:53:53.638Z,3.70
2019-01-05T12:57:32.363Z,3.23
2019-01-05T13:00:47.222Z,4.23
2019-01-05T13:04:05.308Z,4.23
2019-01-05T13:07:38.969Z,3.63
2019-01-05T13:11:32.365Z,3.80
2019-01-05T13:14:52.385Z,4.00
2019-01-05T13:18:28.461Z,3.13
2019-01-05T13:22:18.546Z,3.73
2019-01-05T13:26:04.810Z,4.77
2019-01-05T13:29:29.648Z,4.10
2019-01-05T13:33:00.805Z,4.57
2019-01-05T13:36:39.724Z,5.77
2019-01-05T13:40:17.525Z,6.13
2019-01-05T13:43:44.962Z,4.87
2019-01-05T13:47:05.557Z,4.70
2019-01-05T13:50:38.371Z,6.70
2019-01-05T13:53:39.910Z,8.00
2019-01-05T13:56:35.837Z,10.57
2019-01-05T13:59:22.905Z,6.77
2019-01-05T14:02:09.690Z,8.13
2019-01-05T14:04:56.713Z,8.20
2019-01-05T14:07:45.035Z,5.93
2019-01-05T14:10:33.277Z,5.97
2019-01-05T14:13:19.934Z,5.90
2019-01-05T14:16:26.248Z,5.73
2019-01-05T14:19:15.346Z,7.73
2019-01-05T14:22:15.280Z,6.70
2019-01-05T14:25:06.936Z,8.70
2019-01-05T14:28:13.878Z,6.40
2019-01-05T14:31:14.526Z,7.10
2019-01-05T14:34:18.277Z,6.50
2019-01-05T14:37:24.435Z,6.60
2019-01-05T14:40:16.717Z,6.40
2019-01-05T14:43:05.305Z,7.20
2019-01-05T14:45:59.067Z,4.77
2019-01-05T14:48:45.788Z,7.67
2019-01-05T14:51:32.974Z,6.23
2019-01-05T14:54:20.265Z,6.47
2019-01-05T14:57:26.887Z,6.17
2019-01-05T15:00:30.008Z,6.57
2019-01-05T15:03:16.698Z,6.60
2019-01-05T15:06:03.293Z,5.87
2019-01-05T15:08:51.473Z,6.07
2019-01-05T15:11:38.359Z,6.30
2019-01-05T15:14:25.177Z,8.27
2019-01-05T15:17:14.138Z,6.90
2019-01-05T15:20:20.284Z,7.07
2019-01-05T15:23:07.436Z,9.23
2019-01-05T15:25:55.728Z,8.50
2019-01-05T15:28:43.723Z,7.33
2019-01-05T15:31:26.602Z,9.17
2019-01-05T15:34:30.418Z,7.33
2019-01-05T15:37:18.918Z,8.40
2019-01-05T15:40:05.516Z,8.63
2019-01-05T15:42:59.725Z,8.80
2019-01-05T15:46:02.967Z,9.37
2019-01-05T15:48:51.280Z,9.60
2019-01-05T15:51:37.903Z,11.70
2019-01-05T15:54:23.113Z,8.60
2019-01-05T15:57:14.392Z,8.30
2019-01-05T16:00:17.639Z,11.90
2019-01-05T16:03:10.058Z,10.57
2019-01-05T16:06:13.576Z,10.47
2019-01-05T16:09:07.609Z,9.83
2019-01-05T16:11:54.477Z,10.17
2019-01-05T16:14:42.738Z,13.20
2019-01-05T16:17:28.616Z,10.03
2019-01-05T16:20:22.626Z,11.73
2019-01-05T16:23:09.241Z,11.17
2019-01-05T16:26:09.141Z,9.40
2019-01-05T16:28:57.483Z,11.47
2019-01-05T16:31:51.747Z,9.87
2019-01-05T16:34:46.128Z,8.80
2019-01-05T16:37:41.761Z,10.20
2019-01-05T16:40:38.691Z,8.70
2019-01-05T16:43:29.812Z,9.17
2019-01-05T16:46:24.706Z,10.93
2019-01-05T16:49:15.965Z,10.23
2019-01-05T16:52:10.553Z,11.27
2019-01-05T16:54:57.267Z,11.83
2019-01-05T16:57:45.802Z,10.07
2019-01-05T17:00:36.521Z,11.27
2019-01-05T17:03:39.654Z,9.80
2019-01-05T17:06:26.465Z,10.10
2019-01-05T17:09:14.820Z,9.10
2019-01-05T17:12:03.092Z,11.60
2019-01-05T17:14:51.474Z,10.60
2019-01-05T17:17:39.741Z,9.57
2019-01-05T17:20:39.996Z,8.57
2019-01-05T17:23:35.942Z,9.93
2019-01-05T17:26:22.832Z,9.27
2019-01-05T17:29:01.786Z,9.07
2019-01-05T17:31:51.506Z,9.23
2019-01-05T17:34:39.766Z,8.47
2019-01-05T17:37:26.404Z,8.13
2019-01-05T17:40:13.261Z,7.67
2019-01-05T17:42:56.912Z,7.63
2019-01-05T17:45:41.058Z,9.53
2019-01-05T17:48:28.304Z,7.33
2019-01-05T17:51:11.338Z,7.20
2019-01-05T17:54:11.909Z,6.70
2019-01-05T17:56:59.034Z,7.00
2019-01-05T17:59:56.338Z,8.10
2019-01-05T18:02:47.601Z,7.43
2019-01-05T18:05:44.620Z,7.57
2019-01-05T18:08:50.815Z,8.80
2019-01-05T18:11:39.146Z,16.53
2019-01-05T18:14:45.497Z,8.50
2019-01-05T18:17:32.343Z,14.23
2019-01-05T18:20:18.912Z,9.00
2019-01-05T18:23:05.902Z,7.77
2019-01-05T18:25:57.059Z,8.53
2019-01-05T18:28:51.333Z,8.07
2019-01-05T18:31:45.499Z,8.57
2019-01-05T18:34:32.186Z,9.30
2019-01-05T18:37:19.254Z,7.47
2019-01-05T18:40:13.143Z,7.87
2019-01-05T18:43:19.654Z,9.77
2019-01-05T18:46:06.609Z,9.33
2019-01-05T18:49:00.698Z,9.10
2019-01-05T18:52:00.836Z,8.90
2019-01-05T18:54:47.957Z,7.80
2019-01-05T18:57:45.360Z,9.47
2019-01-05T19:00:39.710Z,8.07
2019-01-05T19:03:27.933Z,9.07
2019-01-05T19:06:16.177Z,9.93
2019-01-05T19:09:04.383Z,9.07
2019-01-05T19:12:10.556Z,9.07
2019-01-05T19:15:02.052Z,8.27
2019-01-05T19:17:59.358Z,10.13
2019-01-05T19:20:46.280Z,7.93
2019-01-05T19:23:43.900Z,8.07
2019-01-05T19:26:32.203Z,9.30
2019-01-05T19:29:18.904Z,8.23
2019-01-05T19:32:07.165Z,7.63
2019-01-05T19:35:10.819Z,7.60
2019-01-05T19:37:57.761Z,8.30
2019-01-05T19:41:01.148Z,8.73
2019-01-05T19:43:47.745Z,7.17
2019-01-05T19:46:45.324Z,8.63
2019-01-05T19:49:43.028Z,8.57
2019-01-05T19:52:29.975Z,8.30
2019-01-05T19:55:21.169Z,7.77
2019-01-05T19:58:15.683Z,8.40
2019-01-05T20:01:02.432Z,8.23
2019-01-05T20:03:57.008Z,9.60
2019-01-05T20:06:43.925Z,8.07
2019-01-05T20:09:30.215Z,7.00
2019-01-05T20:12:21.539Z,9.23
2019-01-05T20:15:06.444Z,7.93
2019-01-05T20:18:09.900Z,8.80
2019-01-05T20:21:13.423Z,8.00
2019-01-05T20:24:10.566Z,7.60
2019-01-05T20:26:59.339Z,7.97
2019-01-05T20:29:47.049Z,7.73
2019-01-05T20:32:47.253Z,8.27
2019-01-05T20:35:47.761Z,8.13
2019-01-05T20:38:36.918Z,6.67
2019-01-05T20:41:23.537Z,6.67
2019-01-05T20:44:23.647Z,7.57
2019-01-05T20:47:24.779Z,6.30
2019-01-05T20:50:11.489Z,7.57
2019-01-05T20:53:14.986Z,7.73
2019-01-05T20:56:21.370Z,5.80
2019-01-05T20:59:18.263Z,6.77
2019-01-05T21:02:18.361Z,8.33
2019-01-05T21:05:04.990Z,6.60
2019-01-05T21:07:56.077Z,8.60
2019-01-05T21:10:43.044Z,6.60
2019-01-05T21:13:37.131Z,8.00
2019-01-05T21:16:25.409Z,6.17
2019-01-05T21:19:12.329Z,6.60
2019-01-05T21:21:58.947Z,5.77
2019-01-05T21:24:49.940Z,6.73
2019-01-05T21:27:36.871Z,6.70
2019-01-05T21:30:27.268Z,6.03
2019-01-05T21:33:25.537Z,5.77
2019-01-05T21:36:14.236Z,7.33
2019-01-05T21:39:11.512Z,6.80
2019-01-05T21:41:58.570Z,6.47
2019-01-05T21:44:55.920Z,7.23
2019-01-05T21:47:42.858Z,7.27
2019-01-05T21:50:46.028Z,6.50
2019-01-05T21:53:28.342Z,6.20
2019-01-05T21:56:19.385Z,8.10
2019-01-05T21:59:25.494Z,7.73
2019-01-05T22:02:25.914Z,6.33
2019-01-05T22:05:12.823Z,7.30
2019-01-05T22:08:13.106Z,7.17
2019-01-05T22:11:19.261Z,7.03
2019-01-05T22:14:06.108Z,8.43
2019-01-05T22:16:52.797Z,8.37
2019-01-05T22:19:56.182Z,10.27
2019-01-05T22:22:44.444Z,8.13
2019-01-05T22:25:32.746Z,7.50
2019-01-05T22:28:30.188Z,7.17
2019-01-05T22:31:17.036Z,7.70
2019-01-05T22:34:08.325Z,8.00
2019-01-05T22:36:54.981Z,8.90
2019-01-05T22:39:49.097Z,7.90
2019-01-05T22:42:49.664Z,7.47
2019-01-05T22:45:36.831Z,8.23
2019-01-05T22:48:28.213Z,6.53
2019-01-05T22:51:20.537Z,8.60
2019-01-05T22:54:27.701Z,9.17
2019-01-05T22:57:14.383Z,22.90
2019-01-05T23:00:01.174Z,9.03
2019-01-05T23:02:49.445Z,7.93
2019-01-05T23:05:43.429Z,6.80
2019-01-05T23:08:40.756Z,8.53
2019-01-05T23:11:27.643Z,6.63
2019-01-05T23:14:23.309Z,9.73
2019-01-05T23:17:11.550Z,7.43
2019-01-05T23:20:00.031Z,7.37
2019-01-05T23:22:59.440Z,7.27
2019-01-05T23:25:47.701Z,7.33
2019-01-05T23:28:37.072Z,9.13
2019-01-05T23:31:23.794Z,6.40
2019-01-05T23:34:15.073Z,6.47
2019-01-05T23:37:01.731Z,8.50
2019-01-05T23:39:50.056Z,7.73
2019-01-05T23:42:41.090Z,7.60
2019-01-05T23:45:32.089Z,7.47
2019-01-05T23:48:19.141Z,7.37
2019-01-05T23:51:06.178Z,7.03
2019-01-05T23:54:00.242Z,6.37
2019-01-05T23:56:52.556Z,6.63
2019-01-05T23:59:39.430Z,7.00
